sensor_id;sensor_type;location;lat;lon;timestamp;temperature;humidity
27544;DHT22;17996;51.056;3.656;2022-08-07T00:00:49;17.50;95.70
27544;DHT22;17996;51.056;3.656;2022-08-07T00:03:14;17.50;95.90
27544;DHT22;17996;51.056;3.656;2022-08-07T00:05:40;17.60;96.10
27544;DHT22;17996;51.056;3.656;2022-08-07T00:08:06;17.40;96.20
27544;DHT22;17996;51.056;3.656;2022-08-07T00:10:32;17.40;96.20
27544;DHT22;17996;51.056;3.656;2022-08-07T00:12:59;17.40;96.30
27544;DHT22;17996;51.056;3.656;2022-08-07T00:15:25;17.40;96.40
27544;DHT22;17996;51.056;3.656;2022-08-07T00:17:51;17.30;96.40
27544;DHT22;17996;51.056;3.656;2022-08-07T00:20:17;17.30;96.60
27544;DHT22;17996;51.056;3.656;2022-08-07T00:22:42;17.30;96.80
27544;DHT22;17996;51.056;3.656;2022-08-07T00:25:08;17.30;97.00
27544;DHT22;17996;51.056;3.656;2022-08-07T00:27:34;17.20;97.00
27544;DHT22;17996;51.056;3.656;2022-08-07T00:30:01;17.10;97.10
27544;DHT22;17996;51.056;3.656;2022-08-07T00:32:27;17.10;97.40
27544;DHT22;17996;51.056;3.656;2022-08-07T00:34:52;17.00;97.60
27544;DHT22;17996;51.056;3.656;2022-08-07T00:37:18;17.00;97.70
27544;DHT22;17996;51.056;3.656;2022-08-07T00:39:44;17.00;97.80
27544;DHT22;17996;51.056;3.656;2022-08-07T00:42:10;16.90;97.90
27544;DHT22;17996;51.056;3.656;2022-08-07T00:44:36;16.90;98.10
27544;DHT22;17996;51.056;3.656;2022-08-07T00:47:03;16.90;98.20
27544;DHT22;17996;51.056;3.656;2022-08-07T00:49:30;16.80;98.30
27544;DHT22;17996;51.056;3.656;2022-08-07T00:51:57;16.80;98.60
27544;DHT22;17996;51.056;3.656;2022-08-07T00:54:22;16.80;98.60
27544;DHT22;17996;51.056;3.656;2022-08-07T00:56:49;16.80;99.00
27544;DHT22;17996;51.056;3.656;2022-08-07T00:59:14;16.70;98.90
27544;DHT22;17996;51.056;3.656;2022-08-07T01:01:40;16.70;99.10
27544;DHT22;17996;51.056;3.656;2022-08-07T01:04:07;16.60;99.20
27544;DHT22;17996;51.056;3.656;2022-08-07T01:06:33;16.60;99.30
27544;DHT22;17996;51.056;3.656;2022-08-07T01:09:00;16.50;99.40
27544;DHT22;17996;51.056;3.656;2022-08-07T01:11:26;16.50;99.80
27544;DHT22;17996;51.056;3.656;2022-08-07T01:13:52;16.50;99.60
27544;DHT22;17996;51.056;3.656;2022-08-07T01:16:18;16.50;99.50
27544;DHT22;17996;51.056;3.656;2022-08-07T01:18:44;16.30;99.50
27544;DHT22;17996;51.056;3.656;2022-08-07T01:21:14;16.30;99.70
27544;DHT22;17996;51.056;3.656;2022-08-07T01:23:42;16.30;99.90
27544;DHT22;17996;51.056;3.656;2022-08-07T01:26:10;16.30;99.90
27544;DHT22;17996;51.056;3.656;2022-08-07T01:28:41;16.20;99.90
27544;DHT22;17996;51.056;3.656;2022-08-07T01:31:07;16.20;99.90
27544;DHT22;17996;51.056;3.656;2022-08-07T01:33:34;16.10;99.90
27544;DHT22;17996;51.056;3.656;2022-08-07T01:36:00;16.10;99.90
27544;DHT22;17996;51.056;3.656;2022-08-07T01:38:27;16.10;99.90
27544;DHT22;17996;51.056;3.656;2022-08-07T01:40:58;16.00;99.90
27544;DHT22;17996;51.056;3.656;2022-08-07T01:43:26;16.00;99.90
27544;DHT22;17996;51.056;3.656;2022-08-07T01:45:53;16.00;99.90
27544;DHT22;17996;51.056;3.656;2022-08-07T01:48:19;16.00;99.90
27544;DHT22;17996;51.056;3.656;2022-08-07T01:50:47;15.90;99.90
27544;DHT22;17996;51.056;3.656;2022-08-07T01:53:16;15.90;99.90
27544;DHT22;17996;51.056;3.656;2022-08-07T01:55:46;15.90;99.90
27544;DHT22;17996;51.056;3.656;2022-08-07T01:58:15;15.80;99.90
27544;DHT22;17996;51.056;3.656;2022-08-07T02:00:43;15.80;99.90
27544;DHT22;17996;51.056;3.656;2022-08-07T02:03:13;15.80;99.90
27544;DHT22;17996;51.056;3.656;2022-08-07T02:05:44;15.80;99.90
27544;DHT22;17996;51.056;3.656;2022-08-07T02:08:16;15.80;99.90
27544;DHT22;17996;51.056;3.656;2022-08-07T02:10:43;15.70;99.90
27544;DHT22;17996;51.056;3.656;2022-08-07T02:13:11;15.80;99.90
27544;DHT22;17996;51.056;3.656;2022-08-07T02:15:39;15.80;99.90
27544;DHT22;17996;51.056;3.656;2022-08-07T02:18:09;15.80;99.90
27544;DHT22;17996;51.056;3.656;2022-08-07T02:20:37;15.80;99.90
27544;DHT22;17996;51.056;3.656;2022-08-07T02:23:04;15.70;99.90
27544;DHT22;17996;51.056;3.656;2022-08-07T02:25:33;15.60;99.90
27544;DHT22;17996;51.056;3.656;2022-08-07T02:27:59;15.60;99.90
27544;DHT22;17996;51.056;3.656;2022-08-07T02:30:26;15.50;99.90
27544;DHT22;17996;51.056;3.656;2022-08-07T02:32:53;15.50;99.90
27544;DHT22;17996;51.056;3.656;2022-08-07T02:35:20;15.50;99.90
27544;DHT22;17996;51.056;3.656;2022-08-07T02:37:48;15.50;99.90
27544;DHT22;17996;51.056;3.656;2022-08-07T02:40:14;15.40;99.90
27544;DHT22;17996;51.056;3.656;2022-08-07T02:42:40;15.40;99.90
27544;DHT22;17996;51.056;3.656;2022-08-07T02:45:09;15.50;99.90
27544;DHT22;17996;51.056;3.656;2022-08-07T02:47:36;15.30;99.90
27544;DHT22;17996;51.056;3.656;2022-08-07T02:50:02;15.20;99.90
27544;DHT22;17996;51.056;3.656;2022-08-07T02:52:33;15.20;99.90
27544;DHT22;17996;51.056;3.656;2022-08-07T02:55:18;15.20;99.90
27544;DHT22;17996;51.056;3.656;2022-08-07T02:57:46;15.20;99.90
27544;DHT22;17996;51.056;3.656;2022-08-07T03:00:13;15.20;99.90
27544;DHT22;17996;51.056;3.656;2022-08-07T03:02:46;15.20;99.90
27544;DHT22;17996;51.056;3.656;2022-08-07T03:05:13;15.20;99.90
27544;DHT22;17996;51.056;3.656;2022-08-07T03:07:41;15.20;99.90
27544;DHT22;17996;51.056;3.656;2022-08-07T03:10:07;15.20;99.90
27544;DHT22;17996;51.056;3.656;2022-08-07T03:12:34;15.20;99.90
27544;DHT22;17996;51.056;3.656;2022-08-07T03:15:02;15.20;99.90
27544;DHT22;17996;51.056;3.656;2022-08-07T03:17:28;15.10;99.90
27544;DHT22;17996;51.056;3.656;2022-08-07T03:19:54;15.30;99.90
27544;DHT22;17996;51.056;3.656;2022-08-07T03:22:22;15.10;99.90
27544;DHT22;17996;51.056;3.656;2022-08-07T03:24:49;15.10;99.90
27544;DHT22;17996;51.056;3.656;2022-08-07T03:27:15;15.20;99.90
27544;DHT22;17996;51.056;3.656;2022-08-07T03:29:50;15.20;99.90
27544;DHT22;17996;51.056;3.656;2022-08-07T03:32:19;15.10;99.90
27544;DHT22;17996;51.056;3.656;2022-08-07T03:34:48;15.10;99.90
27544;DHT22;17996;51.056;3.656;2022-08-07T03:37:17;15.20;99.90
27544;DHT22;17996;51.056;3.656;2022-08-07T03:39:43;15.10;99.90
27544;DHT22;17996;51.056;3.656;2022-08-07T03:42:13;15.10;99.90
27544;DHT22;17996;51.056;3.656;2022-08-07T03:44:40;15.30;99.90
27544;DHT22;17996;51.056;3.656;2022-08-07T03:47:06;15.10;99.90
27544;DHT22;17996;51.056;3.656;2022-08-07T03:49:33;15.10;99.90
27544;DHT22;17996;51.056;3.656;2022-08-07T03:52:00;15.10;99.90
27544;DHT22;17996;51.056;3.656;2022-08-07T03:54:26;15.00;99.90
27544;DHT22;17996;51.056;3.656;2022-08-07T03:56:54;15.00;99.90
27544;DHT22;17996;51.056;3.656;2022-08-07T03:59:21;15.00;99.90
27544;DHT22;17996;51.056;3.656;2022-08-07T04:01:47;15.00;99.90
27544;DHT22;17996;51.056;3.656;2022-08-07T04:04:17;15.00;99.90
27544;DHT22;17996;51.056;3.656;2022-08-07T04:06:43;15.00;99.90
27544;DHT22;17996;51.056;3.656;2022-08-07T04:09:09;15.00;99.90
27544;DHT22;17996;51.056;3.656;2022-08-07T04:11:36;15.10;99.90
27544;DHT22;17996;51.056;3.656;2022-08-07T04:14:02;15.00;99.90
27544;DHT22;17996;51.056;3.656;2022-08-07T04:16:28;15.00;99.90
27544;DHT22;17996;51.056;3.656;2022-08-07T04:18:54;15.00;99.90
27544;DHT22;17996;51.056;3.656;2022-08-07T04:21:20;14.90;99.90
27544;DHT22;17996;51.056;3.656;2022-08-07T04:23:46;14.90;99.90
27544;DHT22;17996;51.056;3.656;2022-08-07T04:26:13;14.80;99.90
27544;DHT22;17996;51.056;3.656;2022-08-07T04:28:39;14.80;99.90
27544;DHT22;17996;51.056;3.656;2022-08-07T04:31:06;14.70;99.90
27544;DHT22;17996;51.056;3.656;2022-08-07T04:33:32;14.70;99.90
27544;DHT22;17996;51.056;3.656;2022-08-07T04:35:58;14.90;99.90
27544;DHT22;17996;51.056;3.656;2022-08-07T04:38:24;14.70;99.90
27544;DHT22;17996;51.056;3.656;2022-08-07T04:40:51;14.90;99.90
27544;DHT22;17996;51.056;3.656;2022-08-07T04:43:29;14.70;99.90
27544;DHT22;17996;51.056;3.656;2022-08-07T04:59:20;14.50;99.90
27544;DHT22;17996;51.056;3.656;2022-08-07T05:01:55;14.50;99.90
27544;DHT22;17996;51.056;3.656;2022-08-07T05:07:17;14.70;99.90
27544;DHT22;17996;51.056;3.656;2022-08-07T05:09:56;14.70;99.90
27544;DHT22;17996;51.056;3.656;2022-08-07T05:12:29;14.70;99.90
27544;DHT22;17996;51.056;3.656;2022-08-07T05:15:04;14.70;99.90
27544;DHT22;17996;51.056;3.656;2022-08-07T05:17:45;14.80;99.90
27544;DHT22;17996;51.056;3.656;2022-08-07T05:20:24;14.80;99.90
27544;DHT22;17996;51.056;3.656;2022-08-07T05:22:52;14.80;99.90
27544;DHT22;17996;51.056;3.656;2022-08-07T05:25:20;14.90;99.90
27544;DHT22;17996;51.056;3.656;2022-08-07T05:27:47;14.90;99.90
27544;DHT22;17996;51.056;3.656;2022-08-07T05:30:15;15.00;99.90
27544;DHT22;17996;51.056;3.656;2022-08-07T05:32:43;15.00;99.90
27544;DHT22;17996;51.056;3.656;2022-08-07T05:35:12;15.00;99.90
27544;DHT22;17996;51.056;3.656;2022-08-07T05:37:38;15.20;99.90
27544;DHT22;17996;51.056;3.656;2022-08-07T05:40:05;15.20;99.90
27544;DHT22;17996;51.056;3.656;2022-08-07T05:42:31;15.20;99.90
27544;DHT22;17996;51.056;3.656;2022-08-07T05:44:57;15.20;99.90
27544;DHT22;17996;51.056;3.656;2022-08-07T05:47:23;15.30;99.90
27544;DHT22;17996;51.056;3.656;2022-08-07T05:49:50;15.20;99.90
27544;DHT22;17996;51.056;3.656;2022-08-07T05:52:17;15.40;99.90
27544;DHT22;17996;51.056;3.656;2022-08-07T05:54:43;15.30;99.90
27544;DHT22;17996;51.056;3.656;2022-08-07T05:57:09;15.40;99.90
27544;DHT22;17996;51.056;3.656;2022-08-07T05:59:37;15.30;99.90
27544;DHT22;17996;51.056;3.656;2022-08-07T06:02:06;15.50;99.90
27544;DHT22;17996;51.056;3.656;2022-08-07T06:04:36;15.50;99.90
27544;DHT22;17996;51.056;3.656;2022-08-07T06:07:04;15.40;99.90
27544;DHT22;17996;51.056;3.656;2022-08-07T06:09:33;15.40;99.90
27544;DHT22;17996;51.056;3.656;2022-08-07T06:11:59;15.50;99.90
27544;DHT22;17996;51.056;3.656;2022-08-07T06:14:25;15.50;99.90
27544;DHT22;17996;51.056;3.656;2022-08-07T06:16:51;15.50;99.90
27544;DHT22;17996;51.056;3.656;2022-08-07T06:19:20;15.60;99.90
27544;DHT22;17996;51.056;3.656;2022-08-07T06:21:46;15.60;99.90
27544;DHT22;17996;51.056;3.656;2022-08-07T06:24:13;15.70;99.90
27544;DHT22;17996;51.056;3.656;2022-08-07T06:26:40;15.80;99.90
27544;DHT22;17996;51.056;3.656;2022-08-07T06:29:06;16.00;99.90
27544;DHT22;17996;51.056;3.656;2022-08-07T06:31:32;15.90;99.90
27544;DHT22;17996;51.056;3.656;2022-08-07T06:33:58;16.00;99.90
27544;DHT22;17996;51.056;3.656;2022-08-07T06:36:24;16.10;99.90
27544;DHT22;17996;51.056;3.656;2022-08-07T06:38:53;16.20;99.90
27544;DHT22;17996;51.056;3.656;2022-08-07T06:41:47;16.20;99.90
27544;DHT22;17996;51.056;3.656;2022-08-07T06:44:14;16.30;99.90
27544;DHT22;17996;51.056;3.656;2022-08-07T06:46:41;16.40;99.90
27544;DHT22;17996;51.056;3.656;2022-08-07T06:49:07;16.40;99.90
27544;DHT22;17996;51.056;3.656;2022-08-07T06:51:34;16.50;99.90
27544;DHT22;17996;51.056;3.656;2022-08-07T06:54:02;16.60;99.90
27544;DHT22;17996;51.056;3.656;2022-08-07T06:56:29;16.60;99.90
27544;DHT22;17996;51.056;3.656;2022-08-07T06:59:17;16.70;99.90
27544;DHT22;17996;51.056;3.656;2022-08-07T07:01:47;16.90;99.90
27544;DHT22;17996;51.056;3.656;2022-08-07T07:04:14;16.90;99.90
27544;DHT22;17996;51.056;3.656;2022-08-07T07:06:40;17.00;99.90
27544;DHT22;17996;51.056;3.656;2022-08-07T07:09:27;17.10;99.90
27544;DHT22;17996;51.056;3.656;2022-08-07T07:14:44;17.20;99.90
27544;DHT22;17996;51.056;3.656;2022-08-07T07:17:32;17.30;99.90
27544;DHT22;17996;51.056;3.656;2022-08-07T07:20:03;17.30;99.90
27544;DHT22;17996;51.056;3.656;2022-08-07T07:22:31;17.40;99.90
27544;DHT22;17996;51.056;3.656;2022-08-07T07:25:00;17.50;99.90
27544;DHT22;17996;51.056;3.656;2022-08-07T07:27:29;17.50;99.90
27544;DHT22;17996;51.056;3.656;2022-08-07T07:29:59;17.70;99.90
27544;DHT22;17996;51.056;3.656;2022-08-07T07:32:29;17.80;99.90
27544;DHT22;17996;51.056;3.656;2022-08-07T07:34:58;17.80;99.90
27544;DHT22;17996;51.056;3.656;2022-08-07T07:37:25;17.80;99.90
27544;DHT22;17996;51.056;3.656;2022-08-07T07:39:56;17.90;99.90
27544;DHT22;17996;51.056;3.656;2022-08-07T07:42:24;18.10;99.90
27544;DHT22;17996;51.056;3.656;2022-08-07T07:44:52;18.00;99.90
27544;DHT22;17996;51.056;3.656;2022-08-07T07:47:18;18.00;99.90
27544;DHT22;17996;51.056;3.656;2022-08-07T07:49:46;18.10;99.90
27544;DHT22;17996;51.056;3.656;2022-08-07T07:52:15;18.10;99.90
27544;DHT22;17996;51.056;3.656;2022-08-07T07:54:42;18.20;99.90
27544;DHT22;17996;51.056;3.656;2022-08-07T07:57:08;18.20;99.90
27544;DHT22;17996;51.056;3.656;2022-08-07T07:59:37;18.30;99.90
27544;DHT22;17996;51.056;3.656;2022-08-07T08:02:03;18.30;99.90
27544;DHT22;17996;51.056;3.656;2022-08-07T08:04:31;18.30;99.90
27544;DHT22;17996;51.056;3.656;2022-08-07T08:06:59;18.40;99.90
27544;DHT22;17996;51.056;3.656;2022-08-07T08:09:26;18.40;99.90
27544;DHT22;17996;51.056;3.656;2022-08-07T08:11:53;18.40;99.90
27544;DHT22;17996;51.056;3.656;2022-08-07T08:14:20;18.50;99.90
27544;DHT22;17996;51.056;3.656;2022-08-07T08:16:46;18.50;99.90
27544;DHT22;17996;51.056;3.656;2022-08-07T08:19:16;18.50;99.90
27544;DHT22;17996;51.056;3.656;2022-08-07T08:21:46;18.60;99.90
27544;DHT22;17996;51.056;3.656;2022-08-07T08:24:36;18.60;99.90
27544;DHT22;17996;51.056;3.656;2022-08-07T08:27:23;18.70;99.90
27544;DHT22;17996;51.056;3.656;2022-08-07T08:29:53;18.70;99.90
27544;DHT22;17996;51.056;3.656;2022-08-07T08:32:24;18.80;99.90
27544;DHT22;17996;51.056;3.656;2022-08-07T08:34:52;18.80;99.90
27544;DHT22;17996;51.056;3.656;2022-08-07T08:37:18;18.90;99.90
27544;DHT22;17996;51.056;3.656;2022-08-07T08:39:46;18.90;99.90
27544;DHT22;17996;51.056;3.656;2022-08-07T08:45:17;19.00;99.90
27544;DHT22;17996;51.056;3.656;2022-08-07T08:50:31;19.00;99.90
27544;DHT22;17996;51.056;3.656;2022-08-07T08:56:00;19.10;99.10
27544;DHT22;17996;51.056;3.656;2022-08-07T08:58:34;19.20;99.30
27544;DHT22;17996;51.056;3.656;2022-08-07T09:01:09;19.30;99.30
27544;DHT22;17996;51.056;3.656;2022-08-07T09:20:56;19.50;97.40
27544;DHT22;17996;51.056;3.656;2022-08-07T09:23:33;19.50;96.10
27544;DHT22;17996;51.056;3.656;2022-08-07T09:26:30;19.60;95.70
27544;DHT22;17996;51.056;3.656;2022-08-07T09:32:45;19.70;95.90
27544;DHT22;17996;51.056;3.656;2022-08-07T09:35:17;19.70;95.20
27544;DHT22;17996;51.056;3.656;2022-08-07T09:37:55;19.70;94.70
27544;DHT22;17996;51.056;3.656;2022-08-07T09:43:50;19.80;95.40
27544;DHT22;17996;51.056;3.656;2022-08-07T09:52:13;20.00;93.40
27544;DHT22;17996;51.056;3.656;2022-08-07T09:54:44;20.00;93.50
27544;DHT22;17996;51.056;3.656;2022-08-07T10:00:04;20.00;92.80
27544;DHT22;17996;51.056;3.656;2022-08-07T10:10:51;20.00;86.70
27544;DHT22;17996;51.056;3.656;2022-08-07T10:26:13;20.40;91.90
27544;DHT22;17996;51.056;3.656;2022-08-07T10:35:03;20.50;88.90
27544;DHT22;17996;51.056;3.656;2022-08-07T10:40:40;20.60;90.20
27544;DHT22;17996;51.056;3.656;2022-08-07T10:45:48;20.60;90.90
27544;DHT22;17996;51.056;3.656;2022-08-07T10:48:25;20.60;90.80
27544;DHT22;17996;51.056;3.656;2022-08-07T10:50:59;20.70;91.10
27544;DHT22;17996;51.056;3.656;2022-08-07T10:54:05;20.70;91.20
27544;DHT22;17996;51.056;3.656;2022-08-07T10:59:11;20.90;91.10
27544;DHT22;17996;51.056;3.656;2022-08-07T11:02:17;20.90;91.30
27544;DHT22;17996;51.056;3.656;2022-08-07T11:11:00;21.00;90.80
27544;DHT22;17996;51.056;3.656;2022-08-07T11:13:24;21.00;91.00
27544;DHT22;17996;51.056;3.656;2022-08-07T11:16:00;21.10;90.60
27544;DHT22;17996;51.056;3.656;2022-08-07T11:18:33;21.00;90.80
27544;DHT22;17996;51.056;3.656;2022-08-07T11:24:11;21.20;89.60
27544;DHT22;17996;51.056;3.656;2022-08-07T11:26:41;21.20;90.00
27544;DHT22;17996;51.056;3.656;2022-08-07T11:29:15;21.20;88.20
27544;DHT22;17996;51.056;3.656;2022-08-07T11:40:01;21.40;86.80
27544;DHT22;17996;51.056;3.656;2022-08-07T11:50:44;21.50;89.20
27544;DHT22;17996;51.056;3.656;2022-08-07T11:54:23;21.50;89.60
27544;DHT22;17996;51.056;3.656;2022-08-07T11:56:35;21.60;87.70
27544;DHT22;17996;51.056;3.656;2022-08-07T11:59:29;21.70;89.10
27544;DHT22;17996;51.056;3.656;2022-08-07T12:02:09;21.80;87.90
27544;DHT22;17996;51.056;3.656;2022-08-07T12:04:44;21.90;87.10
27544;DHT22;17996;51.056;3.656;2022-08-07T12:07:24;21.90;86.50
27544;DHT22;17996;51.056;3.656;2022-08-07T12:10:04;21.90;86.40
27544;DHT22;17996;51.056;3.656;2022-08-07T12:12:46;22.00;87.40
27544;DHT22;17996;51.056;3.656;2022-08-07T12:15:23;22.10;87.90
27544;DHT22;17996;51.056;3.656;2022-08-07T12:20:56;22.20;90.30
27544;DHT22;17996;51.056;3.656;2022-08-07T12:26:32;22.20;88.30
27544;DHT22;17996;51.056;3.656;2022-08-07T12:29:08;22.30;88.50
27544;DHT22;17996;51.056;3.656;2022-08-07T12:34:23;22.40;87.30
27544;DHT22;17996;51.056;3.656;2022-08-07T12:36:52;22.40;87.70
27544;DHT22;17996;51.056;3.656;2022-08-07T12:39:19;22.40;88.00
27544;DHT22;17996;51.056;3.656;2022-08-07T12:41:46;22.40;89.30
27544;DHT22;17996;51.056;3.656;2022-08-07T12:44:13;22.40;89.60
27544;DHT22;17996;51.056;3.656;2022-08-07T12:52:09;22.40;87.70
27544;DHT22;17996;51.056;3.656;2022-08-07T12:57:24;22.50;89.00
27544;DHT22;17996;51.056;3.656;2022-08-07T12:59:52;22.60;85.90
27544;DHT22;17996;51.056;3.656;2022-08-07T13:14:02;22.80;86.90
27544;DHT22;17996;51.056;3.656;2022-08-07T13:19:33;23.00;85.50
27544;DHT22;17996;51.056;3.656;2022-08-07T13:22:12;23.00;86.80
27544;DHT22;17996;51.056;3.656;2022-08-07T13:25:05;23.10;87.50
27544;DHT22;17996;51.056;3.656;2022-08-07T13:27:36;23.10;87.60
27544;DHT22;17996;51.056;3.656;2022-08-07T13:30:04;23.10;86.80
27544;DHT22;17996;51.056;3.656;2022-08-07T13:35:44;23.30;88.70
27544;DHT22;17996;51.056;3.656;2022-08-07T13:38:34;23.40;87.00
27544;DHT22;17996;51.056;3.656;2022-08-07T13:41:29;23.40;87.80
27544;DHT22;17996;51.056;3.656;2022-08-07T13:44:02;23.40;86.90
27544;DHT22;17996;51.056;3.656;2022-08-07T13:46:29;23.40;87.10
27544;DHT22;17996;51.056;3.656;2022-08-07T13:48:59;23.30;86.60
27544;DHT22;17996;51.056;3.656;2022-08-07T13:51:28;23.40;88.00
27544;DHT22;17996;51.056;3.656;2022-08-07T13:53:59;23.50;87.10
27544;DHT22;17996;51.056;3.656;2022-08-07T13:56:26;23.50;86.00
27544;DHT22;17996;51.056;3.656;2022-08-07T13:58:54;23.50;85.50
27544;DHT22;17996;51.056;3.656;2022-08-07T14:01:37;23.70;86.20
27544;DHT22;17996;51.056;3.656;2022-08-07T14:04:10;23.80;85.80
27544;DHT22;17996;51.056;3.656;2022-08-07T14:06:40;23.80;85.10
27544;DHT22;17996;51.056;3.656;2022-08-07T14:09:19;24.00;84.30
27544;DHT22;17996;51.056;3.656;2022-08-07T14:11:58;24.20;84.50
27544;DHT22;17996;51.056;3.656;2022-08-07T14:14:41;24.40;84.80
27544;DHT22;17996;51.056;3.656;2022-08-07T14:17:10;24.60;83.30
27544;DHT22;17996;51.056;3.656;2022-08-07T14:19:39;24.90;85.40
27544;DHT22;17996;51.056;3.656;2022-08-07T14:22:09;25.20;83.70
27544;DHT22;17996;51.056;3.656;2022-08-07T14:24:41;25.50;82.00
27544;DHT22;17996;51.056;3.656;2022-08-07T14:27:11;26.00;80.20
27544;DHT22;17996;51.056;3.656;2022-08-07T14:29:45;26.20;78.90
27544;DHT22;17996;51.056;3.656;2022-08-07T14:32:12;26.60;78.10
27544;DHT22;17996;51.056;3.656;2022-08-07T14:34:42;27.00;77.20
27544;DHT22;17996;51.056;3.656;2022-08-07T14:37:10;27.20;73.30
27544;DHT22;17996;51.056;3.656;2022-08-07T14:39:38;27.20;74.10
27544;DHT22;17996;51.056;3.656;2022-08-07T14:42:05;27.50;71.30
27544;DHT22;17996;51.056;3.656;2022-08-07T14:44:32;27.80;70.50
27544;DHT22;17996;51.056;3.656;2022-08-07T14:47:00;28.40;70.80
27544;DHT22;17996;51.056;3.656;2022-08-07T14:49:32;28.70;68.20
27544;DHT22;17996;51.056;3.656;2022-08-07T14:51:59;29.20;67.00
27544;DHT22;17996;51.056;3.656;2022-08-07T14:54:30;29.00;65.40
27544;DHT22;17996;51.056;3.656;2022-08-07T14:56:57;29.00;63.80
27544;DHT22;17996;51.056;3.656;2022-08-07T14:59:24;29.40;64.20
27544;DHT22;17996;51.056;3.656;2022-08-07T15:01:53;29.60;63.90
27544;DHT22;17996;51.056;3.656;2022-08-07T15:04:21;30.10;61.60
27544;DHT22;17996;51.056;3.656;2022-08-07T15:06:48;30.10;63.60
27544;DHT22;17996;51.056;3.656;2022-08-07T15:09:17;30.70;61.40
27544;DHT22;17996;51.056;3.656;2022-08-07T15:11:55;31.20;61.50
27544;DHT22;17996;51.056;3.656;2022-08-07T15:14:25;31.60;59.20
27544;DHT22;17996;51.056;3.656;2022-08-07T15:16:58;31.60;59.40
27544;DHT22;17996;51.056;3.656;2022-08-07T15:19:33;32.00;59.40
27544;DHT22;17996;51.056;3.656;2022-08-07T15:22:02;32.30;57.20
27544;DHT22;17996;51.056;3.656;2022-08-07T15:24:31;32.50;57.20
27544;DHT22;17996;51.056;3.656;2022-08-07T15:29:35;32.70;56.40
27544;DHT22;17996;51.056;3.656;2022-08-07T15:32:03;33.00;57.20
27544;DHT22;17996;51.056;3.656;2022-08-07T15:34:42;33.00;55.80
27544;DHT22;17996;51.056;3.656;2022-08-07T15:37:09;32.90;55.10
27544;DHT22;17996;51.056;3.656;2022-08-07T15:39:40;32.30;55.50
27544;DHT22;17996;51.056;3.656;2022-08-07T15:44:58;32.60;56.20
27544;DHT22;17996;51.056;3.656;2022-08-07T15:47:27;32.40;56.90
27544;DHT22;17996;51.056;3.656;2022-08-07T15:49:58;32.50;56.30
27544;DHT22;17996;51.056;3.656;2022-08-07T15:52:25;32.60;55.70
27544;DHT22;17996;51.056;3.656;2022-08-07T15:54:53;32.60;55.80
27544;DHT22;17996;51.056;3.656;2022-08-07T15:57:26;32.40;55.10
27544;DHT22;17996;51.056;3.656;2022-08-07T15:59:56;32.20;55.10
27544;DHT22;17996;51.056;3.656;2022-08-07T16:02:25;32.00;55.60
27544;DHT22;17996;51.056;3.656;2022-08-07T16:05:02;32.00;56.30
27544;DHT22;17996;51.056;3.656;2022-08-07T16:07:38;32.00;55.70
27544;DHT22;17996;51.056;3.656;2022-08-07T16:10:16;32.20;56.00
27544;DHT22;17996;51.056;3.656;2022-08-07T16:31:54;30.40;55.60
27544;DHT22;17996;51.056;3.656;2022-08-07T16:52:11;26.70;60.20
27544;DHT22;17996;51.056;3.656;2022-08-07T16:54:50;26.60;60.10
27544;DHT22;17996;51.056;3.656;2022-08-07T16:57:32;26.60;61.20
27544;DHT22;17996;51.056;3.656;2022-08-07T17:02:40;26.60;61.50
27544;DHT22;17996;51.056;3.656;2022-08-07T17:07:55;26.40;62.30
27544;DHT22;17996;51.056;3.656;2022-08-07T17:10:45;26.20;62.80
27544;DHT22;17996;51.056;3.656;2022-08-07T17:21:21;25.50;62.80
27544;DHT22;17996;51.056;3.656;2022-08-07T17:26:59;25.30;65.40
27544;DHT22;17996;51.056;3.656;2022-08-07T17:32:01;25.30;65.70
27544;DHT22;17996;51.056;3.656;2022-08-07T17:34:33;25.40;65.80
27544;DHT22;17996;51.056;3.656;2022-08-07T17:37:19;25.30;65.90
27544;DHT22;17996;51.056;3.656;2022-08-07T17:40:08;25.30;65.90
27544;DHT22;17996;51.056;3.656;2022-08-07T17:45:09;25.20;66.30
27544;DHT22;17996;51.056;3.656;2022-08-07T17:47:57;25.10;65.30
27544;DHT22;17996;51.056;3.656;2022-08-07T17:53:06;25.10;67.80
27544;DHT22;17996;51.056;3.656;2022-08-07T17:55:54;25.00;66.80
27544;DHT22;17996;51.056;3.656;2022-08-07T18:01:24;24.80;67.00
27544;DHT22;17996;51.056;3.656;2022-08-07T18:06:51;24.90;68.50
27544;DHT22;17996;51.056;3.656;2022-08-07T18:09:22;25.00;68.40
27544;DHT22;17996;51.056;3.656;2022-08-07T18:11:54;25.00;67.90
27544;DHT22;17996;51.056;3.656;2022-08-07T18:17:09;25.10;67.30
27544;DHT22;17996;51.056;3.656;2022-08-07T18:19:54;25.10;67.60
27544;DHT22;17996;51.056;3.656;2022-08-07T18:22:35;24.90;67.10
27544;DHT22;17996;51.056;3.656;2022-08-07T18:25:03;24.90;66.70
27544;DHT22;17996;51.056;3.656;2022-08-07T18:27:35;24.90;66.70
27544;DHT22;17996;51.056;3.656;2022-08-07T18:36:08;24.90;66.70
27544;DHT22;17996;51.056;3.656;2022-08-07T18:55:12;24.00;68.80
27544;DHT22;17996;51.056;3.656;2022-08-07T19:00:42;23.60;69.80
27544;DHT22;17996;51.056;3.656;2022-08-07T19:03:17;23.40;70.50
27544;DHT22;17996;51.056;3.656;2022-08-07T19:05:56;23.30;71.60
27544;DHT22;17996;51.056;3.656;2022-08-07T19:08:35;23.30;72.80
27544;DHT22;17996;51.056;3.656;2022-08-07T19:18:50;22.70;74.30
27544;DHT22;17996;51.056;3.656;2022-08-07T19:24:32;22.60;75.50
27544;DHT22;17996;51.056;3.656;2022-08-07T19:27:06;22.50;76.20
27544;DHT22;17996;51.056;3.656;2022-08-07T19:29:39;22.50;76.70
27544;DHT22;17996;51.056;3.656;2022-08-07T19:32:05;22.40;76.90
27544;DHT22;17996;51.056;3.656;2022-08-07T19:34:32;22.30;77.30
27544;DHT22;17996;51.056;3.656;2022-08-07T19:37:01;22.30;78.00
27544;DHT22;17996;51.056;3.656;2022-08-07T19:39:30;22.10;78.10
27544;DHT22;17996;51.056;3.656;2022-08-07T19:41:58;22.10;78.70
27544;DHT22;17996;51.056;3.656;2022-08-07T19:44:39;22.00;78.80
27544;DHT22;17996;51.056;3.656;2022-08-07T19:47:08;22.00;79.60
27544;DHT22;17996;51.056;3.656;2022-08-07T19:49:43;21.90;79.80
27544;DHT22;17996;51.056;3.656;2022-08-07T19:52:11;21.70;80.40
27544;DHT22;17996;51.056;3.656;2022-08-07T19:54:42;21.60;80.70
27544;DHT22;17996;51.056;3.656;2022-08-07T19:57:08;21.60;81.10
27544;DHT22;17996;51.056;3.656;2022-08-07T19:59:37;21.50;81.60
27544;DHT22;17996;51.056;3.656;2022-08-07T20:02:05;21.40;81.90
27544;DHT22;17996;51.056;3.656;2022-08-07T20:04:37;21.40;82.30
27544;DHT22;17996;51.056;3.656;2022-08-07T20:07:06;21.30;82.20
27544;DHT22;17996;51.056;3.656;2022-08-07T20:09:41;21.30;82.80
27544;DHT22;17996;51.056;3.656;2022-08-07T20:12:07;21.20;83.20
27544;DHT22;17996;51.056;3.656;2022-08-07T20:14:39;21.10;83.50
27544;DHT22;17996;51.056;3.656;2022-08-07T20:17:06;21.10;83.70
27544;DHT22;17996;51.056;3.656;2022-08-07T20:19:33;21.00;84.10